Chicago, IL

5:19 PM CDT on May 29, 2017 (GMT -0500)
George Street | | Change Station

Elev 656 ft 41.94 °N, 87.88 °W | Updated 7 minutes ago

Scattered Clouds
Scattered Clouds
75.9 °F
Feels Like 78 °F
N
6.2
Wind Variable Wind from West
Gusts 16.8 mph

Today
High -- | Low -- °F
--% Chance of Precip.
Yesterday
High -- | Low -- °F
Precip. -- in
Pressure 29.83 in
Visibility 10.0 miles
Clouds Scattered Clouds 8000 ft
Heat Index 78 °F
Dew Point 48 °F
Humidity 37%
Rainfall 0.00 in
Snow Depth Not available.
5:20 AM 8:18 PM
Waxing Crescent, 23% visible
METAR KORD 292151Z 28012G23KT 10SM SCT080 23/06 A2983 RMK AO2 PK WND 25028/2110 SLP099 T02280056
Pressure 29.83 in
Visibility 10.0 miles
Clouds Scattered Clouds 8000 ft
Heat Index 78 °F
Dew Point 48 °F
Humidity 37%
Rainfall 0.00 in
Snow Depth Not available.
5:20 AM 8:18 PM
Waxing Crescent, 23% visible
METAR KORD 292151Z 28012G23KT 10SM SCT080 23/06 A2983 RMK AO2 PK WND 25028/2110 SLP099 T02280056

Get Severe Weather Alerts

Thanks for signing up!

Be on the lookout for a verification email in your inbox.

You'll start receiving the daily forecast at 6 AM.

×

10-Day Weather Forecast

Almanac

Astronomy

May. 29, 2017 Rise Set
Actual Time
Civil Twilight
Nautical Twilight
Astronomical Twilight
Moon
Length of Visible Light
Length of Day
Tomorrow will be .
, % of the Moon is Illuminated

Today's Extremes

State Highs State Lows

Community

WunderPhotos

Category 6

Welcome to Category 6. This is the collective home for Weather Underground's featured writeups by Dr. Jeff Masters (right), Bob Henson (left), Chris Burt, and other regular contributors.

Nearby

Air Quality

  Air Quality AQ Index Pollutant
Not available.

Snow Depth

Station Depth Elevation

Earthquake Activity

City Distance Mag. Time & Date
Minimum magnitude displayed is 2.5.

Coastal Water Temperatures

Place Temperature

Stations

Nearby Weather Stations

Station Location Temp. Windchill Dew Point Humidity Wind Precip. Elev Updated Type
                   

Watches & Warnings

There are currently no watches in effect.